createdAt,value
2022-10-25T00:03:58.309Z,8.50
2022-10-25T00:09:01.165Z,6.57
2022-10-25T00:14:07.090Z,6.20
2022-10-25T00:19:09.223Z,7.23
2022-10-25T00:24:12.974Z,6.50
2022-10-25T00:29:15.345Z,6.70
2022-10-25T00:34:17.537Z,7.30
2022-10-25T00:39:19.815Z,7.57
2022-10-25T00:44:40.119Z,6.37
2022-10-25T00:49:43.570Z,6.83
2022-10-25T00:54:49.589Z,6.53
2022-10-25T00:59:52.059Z,6.27
2022-10-25T01:04:54.422Z,5.67
2022-10-25T01:09:57.506Z,5.40
2022-10-25T01:14:59.637Z,5.67
2022-10-25T01:20:17.036Z,5.77
2022-10-25T01:26:08.679Z,4.80
2022-10-25T01:31:19.756Z,4.77
2022-10-25T01:36:39.174Z,4.70
2022-10-25T01:41:53.939Z,4.90
2022-10-25T01:47:16.507Z,6.67
2022-10-25T01:52:23.846Z,5.17
2022-10-25T01:57:45.254Z,5.80
2022-10-25T02:03:15.725Z,4.57
2022-10-25T02:08:36.566Z,5.50
2022-10-25T02:14:09.340Z,4.50
2022-10-25T02:19:14.993Z,4.90
2022-10-25T02:24:27.960Z,4.83
2022-10-25T02:29:31.571Z,3.93
2022-10-25T02:34:34.443Z,4.27
2022-10-25T02:39:36.984Z,4.20
2022-10-25T02:44:39.232Z,5.50
2022-10-25T02:49:41.470Z,4.40
2022-10-25T02:54:43.695Z,4.10
2022-10-25T02:59:45.861Z,4.30
2022-10-25T03:04:47.989Z,6.13
2022-10-25T03:09:50.169Z,5.00
2022-10-25T03:14:52.305Z,5.20
2022-10-25T03:19:54.400Z,5.23
2022-10-25T03:24:56.581Z,4.93
2022-10-25T03:29:58.768Z,4.87
2022-10-25T03:35:00.934Z,4.73
2022-10-25T03:40:06.015Z,3.67
2022-10-25T03:45:08.552Z,3.87
2022-10-25T03:50:11.566Z,4.53
2022-10-25T03:55:13.735Z,4.17
2022-10-25T04:00:15.970Z,5.27
2022-10-25T04:05:18.186Z,5.23
2022-10-25T04:10:20.392Z,5.20
2022-10-25T04:15:23.616Z,5.30
2022-10-25T04:20:25.752Z,4.90
2022-10-25T04:25:28.974Z,6.20
2022-10-25T04:30:35.060Z,5.00
2022-10-25T04:35:40.165Z,6.95
2022-10-25T04:40:53.996Z,5.57
2022-10-25T04:46:00.667Z,5.23
2022-10-25T04:51:03.023Z,4.80
2022-10-25T04:56:08.294Z,5.10
2022-10-25T05:01:14.042Z,4.80
2022-10-25T05:06:22.589Z,5.23
2022-10-25T05:11:25.740Z,4.50
2022-10-25T05:16:28.146Z,5.50
2022-10-25T05:21:31.370Z,4.27
2022-10-25T05:26:35.087Z,7.00
2022-10-25T05:31:38.831Z,7.57
2022-10-25T05:36:40.971Z,5.33
2022-10-25T05:41:43.449Z,5.67
2022-10-25T05:46:45.658Z,5.30
2022-10-25T05:51:47.909Z,5.80
2022-10-25T05:56:50.118Z,8.07
2022-10-25T06:01:52.353Z,5.80
2022-10-25T06:06:54.597Z,6.10
2022-10-25T06:11:56.726Z,7.23
2022-10-25T06:16:58.959Z,5.23
2022-10-25T06:22:02.146Z,5.13
2022-10-25T06:27:04.487Z,4.43
2022-10-25T06:32:06.674Z,5.50
2022-10-25T06:37:08.869Z,5.57
2022-10-25T06:42:10.972Z,7.83
2022-10-25T06:47:17.531Z,7.67
2022-10-25T06:52:20.061Z,8.07
2022-10-25T06:57:22.199Z,5.57
2022-10-25T07:02:24.518Z,5.40
2022-10-25T07:07:26.839Z,5.40
2022-10-25T07:12:30.020Z,5.63
2022-10-25T07:17:32.198Z,5.07
2022-10-25T07:22:35.148Z,4.53
2022-10-25T07:27:37.358Z,6.07
2022-10-25T07:32:41.693Z,5.03
2022-10-25T07:37:45.055Z,4.00
2022-10-25T07:42:49.729Z,4.10
2022-10-25T07:47:52.504Z,2.97
2022-10-25T07:52:57.714Z,3.27
2022-10-25T07:58:04.722Z,3.77
2022-10-25T08:03:07.099Z,4.13
2022-10-25T08:08:09.337Z,3.87
2022-10-25T08:13:11.874Z,3.87
2022-10-25T08:18:14.033Z,5.80
2022-10-25T08:23:16.303Z,3.40
2022-10-25T08:28:18.752Z,2.67
2022-10-25T08:33:20.973Z,2.27
2022-10-25T08:38:23.123Z,2.20
2022-10-25T08:49:33.508Z,1.70
2022-10-25T08:54:39.207Z,1.17
2022-10-25T08:59:44.029Z,0.60
2022-10-25T09:04:46.344Z,1.23
2022-10-25T09:09:55.495Z,1.30
2022-10-25T09:15:37.960Z,1.30
2022-10-25T09:20:52.748Z,1.43
2022-10-25T09:26:04.981Z,2.10
2022-10-25T09:31:11.493Z,1.90
2022-10-25T09:36:14.675Z,2.50
2022-10-25T09:41:21.253Z,2.13
2022-10-25T09:46:38.013Z,2.10
2022-10-25T09:52:35.650Z,2.10
2022-10-25T09:57:38.116Z,2.17
2022-10-25T10:02:41.254Z,2.53
2022-10-25T10:07:46.088Z,2.10
2022-10-25T10:13:16.196Z,1.80
2022-10-25T10:18:29.949Z,2.53
2022-10-25T10:23:42.687Z,2.73
2022-10-25T10:28:48.964Z,2.30
2022-10-25T10:33:52.308Z,2.00
2022-10-25T10:38:55.480Z,2.43
2022-10-25T10:44:16.061Z,2.40
2022-10-25T10:49:18.254Z,2.27
2022-10-25T10:54:33.377Z,2.00
2022-10-25T10:59:37.023Z,2.13
2022-10-25T11:04:53.025Z,3.20
2022-10-25T11:10:15.517Z,4.90
2022-10-25T11:15:17.686Z,3.70
2022-10-25T11:20:28.495Z,5.50
2022-10-25T11:25:48.307Z,3.17
2022-10-25T11:31:11.037Z,3.08
2022-10-25T11:36:41.393Z,2.10
2022-10-25T11:47:21.394Z,2.13
2022-10-25T11:52:54.448Z,2.00
2022-10-25T11:58:23.651Z,1.53
2022-10-25T12:03:44.754Z,1.57
2022-10-25T12:09:06.107Z,2.10
2022-10-25T12:14:13.100Z,1.90
2022-10-25T12:19:23.107Z,1.57
2022-10-25T12:24:48.519Z,1.60
2022-10-25T12:29:57.147Z,2.13
2022-10-25T12:35:00.651Z,2.03
2022-10-25T12:40:03.817Z,1.73
2022-10-25T12:45:35.924Z,1.93
2022-10-25T12:51:18.099Z,2.03
2022-10-25T12:56:27.061Z,1.80
2022-10-25T13:01:57.963Z,2.50
2022-10-25T13:07:00.746Z,5.17
2022-10-25T13:12:08.597Z,3.67
2022-10-25T13:17:16.935Z,2.87
2022-10-25T13:22:28.263Z,4.00
2022-10-25T13:27:32.244Z,4.90
2022-10-25T13:32:39.265Z,3.03
2022-10-25T13:37:45.257Z,4.87
2022-10-25T13:42:50.027Z,5.40
2022-10-25T13:47:54.567Z,5.97
2022-10-25T13:53:08.457Z,4.90
2022-10-25T13:58:31.724Z,4.47
2022-10-25T14:03:45.814Z,3.07
2022-10-25T14:08:51.660Z,4.87
2022-10-25T14:14:06.697Z,2.90
2022-10-25T14:19:17.561Z,3.20
2022-10-25T14:24:20.434Z,3.73
2022-10-25T14:29:25.071Z,4.03
2022-10-25T14:34:34.438Z,2.50
2022-10-25T14:39:36.669Z,1.88
2022-10-25T14:44:47.298Z,2.47
2022-10-25T14:49:49.549Z,3.30
2022-10-25T14:55:01.823Z,4.07
2022-10-25T15:00:06.497Z,4.43
2022-10-25T15:05:18.012Z,3.53
2022-10-25T15:10:41.186Z,3.80
2022-10-25T15:15:45.369Z,4.90
2022-10-25T15:20:50.289Z,3.47
2022-10-25T15:25:52.605Z,2.77
2022-10-25T15:30:54.823Z,2.87
2022-10-25T15:36:02.763Z,4.47
2022-10-25T15:41:05.070Z,4.00
2022-10-25T15:46:24.898Z,5.13
2022-10-25T15:51:30.934Z,4.72
2022-10-25T15:56:33.494Z,5.27
2022-10-25T16:01:36.330Z,8.77
2022-10-25T16:06:38.684Z,6.77
2022-10-25T16:11:46.291Z,5.90
2022-10-25T16:16:49.687Z,5.83
2022-10-25T16:21:51.863Z,7.17
2022-10-25T16:26:54.139Z,6.73
2022-10-25T16:31:56.302Z,7.87
2022-10-25T16:36:58.658Z,7.37
2022-10-25T16:42:00.838Z,6.77
2022-10-25T16:47:03.045Z,6.60
2022-10-25T16:52:06.343Z,6.10
2022-10-25T16:57:08.810Z,7.13
2022-10-25T17:02:22.221Z,6.77
2022-10-25T17:07:24.773Z,6.53
2022-10-25T17:12:27.076Z,6.63
2022-10-25T17:17:29.343Z,7.07
2022-10-25T17:22:32.933Z,8.60
2022-10-25T17:27:38.267Z,8.50
2022-10-25T17:32:40.604Z,7.13
2022-10-25T17:37:42.974Z,5.97
2022-10-25T17:42:46.270Z,6.60
2022-10-25T17:47:48.786Z,6.50
2022-10-25T17:52:52.081Z,6.40
2022-10-25T17:57:54.584Z,7.03
2022-10-25T18:02:59.017Z,5.90
2022-10-25T18:08:01.308Z,7.60
2022-10-25T18:13:04.658Z,6.90
2022-10-25T18:18:06.946Z,7.23
2022-10-25T18:23:09.759Z,6.43
2022-10-25T18:28:12.019Z,6.63
2022-10-25T18:33:15.203Z,7.20
2022-10-25T18:38:17.999Z,6.73
2022-10-25T18:43:20.310Z,6.30
2022-10-25T18:48:23.107Z,6.60
2022-10-25T18:53:25.267Z,7.77
2022-10-25T18:58:30.334Z,6.80
2022-10-25T19:03:33.597Z,7.27
2022-10-25T19:08:36.754Z,5.97
2022-10-25T19:13:39.813Z,5.80
2022-10-25T19:18:42.012Z,7.30
2022-10-25T19:23:46.452Z,7.23
2022-10-25T19:28:58.856Z,7.37
2022-10-25T19:34:03.255Z,7.30
2022-10-25T19:39:05.541Z,6.50
2022-10-25T19:44:07.696Z,6.27
2022-10-25T19:49:12.566Z,7.23
2022-10-25T19:54:15.042Z,5.87
2022-10-25T19:59:17.487Z,7.00
2022-10-25T20:04:19.725Z,6.20
2022-10-25T20:09:21.972Z,6.77
2022-10-25T20:14:24.285Z,7.10
2022-10-25T20:19:26.589Z,6.83
2022-10-25T20:24:28.821Z,5.93
2022-10-25T20:29:31.299Z,5.23
2022-10-25T20:34:35.437Z,5.93
2022-10-25T20:39:37.744Z,6.33
2022-10-25T20:44:40.179Z,6.23
2022-10-25T20:49:42.401Z,5.97
2022-10-25T20:54:44.610Z,6.20
2022-10-25T20:59:47.508Z,5.37
2022-10-25T21:04:53.674Z,6.47
2022-10-25T21:09:56.056Z,6.07
2022-10-25T21:14:58.178Z,5.50
2022-10-25T21:20:00.536Z,8.63
2022-10-25T21:25:02.710Z,5.67
2022-10-25T21:30:05.439Z,5.50
2022-10-25T21:35:07.949Z,5.43
2022-10-25T21:40:10.684Z,5.33
2022-10-25T21:45:13.956Z,6.27
2022-10-25T21:50:17.552Z,5.70
2022-10-25T21:55:19.642Z,5.80
2022-10-25T22:00:21.840Z,7.73
2022-10-25T22:05:24.057Z,5.67
2022-10-25T22:10:26.499Z,6.37
2022-10-25T22:15:28.727Z,6.03
2022-10-25T22:20:30.917Z,6.47
2022-10-25T22:25:33.071Z,5.90
2022-10-25T22:30:35.183Z,6.10
2022-10-25T22:35:37.624Z,5.87
2022-10-25T22:40:39.847Z,5.67
2022-10-25T22:45:41.979Z,6.60
2022-10-25T22:50:54.621Z,7.63
2022-10-25T22:56:02.065Z,8.27
2022-10-25T23:01:37.934Z,7.87
2022-10-25T23:06:40.915Z,8.57
2022-10-25T23:11:43.196Z,5.80
2022-10-25T23:16:46.360Z,7.20
2022-10-25T23:21:48.568Z,6.63
2022-10-25T23:26:53.837Z,6.83
2022-10-25T23:31:56.002Z,7.23
2022-10-25T23:36:58.632Z,5.63
2022-10-25T23:42:00.763Z,7.20
2022-10-25T23:47:02.895Z,6.77
2022-10-25T23:52:05.128Z,6.77
2022-10-25T23:57:07.275Z,5.27
